sensor_id;sensor_type;location;lat;lon;timestamp;P1;durP1;ratioP1;P2;durP2;ratioP2
76417;SDS011;65250;47.602;19.002;2023-02-18T00:01:24;3.97;;;2.53;;
76417;SDS011;65250;47.602;19.002;2023-02-18T00:03:51;3.80;;;2.30;;
76417;SDS011;65250;47.602;19.002;2023-02-18T00:06:25;2.85;;;2.00;;
76417;SDS011;65250;47.602;19.002;2023-02-18T00:08:57;4.18;;;2.15;;
76417;SDS011;65250;47.602;19.002;2023-02-18T00:11:29;5.28;;;2.40;;
76417;SDS011;65250;47.602;19.002;2023-02-18T00:14:01;3.40;;;2.33;;
76417;SDS011;65250;47.602;19.002;2023-02-18T00:16:30;3.40;;;1.97;;
76417;SDS011;65250;47.602;19.002;2023-02-18T00:19:00;4.25;;;2.20;;
76417;SDS011;65250;47.602;19.002;2023-02-18T00:21:28;3.25;;;2.13;;
76417;SDS011;65250;47.602;19.002;2023-02-18T00:23:57;3.15;;;2.03;;
76417;SDS011;65250;47.602;19.002;2023-02-18T00:26:25;5.88;;;2.05;;
76417;SDS011;65250;47.602;19.002;2023-02-18T00:28:52;3.23;;;1.63;;
76417;SDS011;65250;47.602;19.002;2023-02-18T00:31:22;4.03;;;1.85;;
76417;SDS011;65250;47.602;19.002;2023-02-18T00:33:51;4.60;;;2.00;;
76417;SDS011;65250;47.602;19.002;2023-02-18T00:36:20;3.03;;;1.63;;
76417;SDS011;65250;47.602;19.002;2023-02-18T00:38:52;3.22;;;1.50;;
76417;SDS011;65250;47.602;19.002;2023-02-18T00:41:21;2.20;;;1.60;;
76417;SDS011;65250;47.602;19.002;2023-02-18T00:43:49;1.60;;;1.40;;
76417;SDS011;65250;47.602;19.002;2023-02-18T00:46:17;2.22;;;1.40;;
76417;SDS011;65250;47.602;19.002;2023-02-18T00:48:45;1.75;;;1.23;;
76417;SDS011;65250;47.602;19.002;2023-02-18T00:51:12;3.40;;;1.10;;
76417;SDS011;65250;47.602;19.002;2023-02-18T00:53:40;2.57;;;1.20;;
76417;SDS011;65250;47.602;19.002;2023-02-18T00:56:08;2.45;;;1.15;;
76417;SDS011;65250;47.602;19.002;2023-02-18T00:58:36;5.85;;;1.20;;
76417;SDS011;65250;47.602;19.002;2023-02-18T01:01:05;1.50;;;1.00;;
76417;SDS011;65250;47.602;19.002;2023-02-18T01:03:34;2.15;;;1.08;;
76417;SDS011;65250;47.602;19.002;2023-02-18T01:06:03;2.00;;;1.00;;
76417;SDS011;65250;47.602;19.002;2023-02-18T01:08:32;2.10;;;0.60;;
76417;SDS011;65250;47.602;19.002;2023-02-18T01:11:01;2.25;;;1.00;;
76417;SDS011;65250;47.602;19.002;2023-02-18T01:13:29;1.20;;;0.73;;
76417;SDS011;65250;47.602;19.002;2023-02-18T01:15:57;1.38;;;0.93;;
76417;SDS011;65250;47.602;19.002;2023-02-18T01:18:25;1.33;;;0.70;;
76417;SDS011;65250;47.602;19.002;2023-02-18T01:20:53;2.25;;;0.80;;
76417;SDS011;65250;47.602;19.002;2023-02-18T01:23:21;1.30;;;0.82;;
76417;SDS011;65250;47.602;19.002;2023-02-18T01:25:50;1.13;;;0.60;;
76417;SDS011;65250;47.602;19.002;2023-02-18T01:28:18;2.05;;;0.70;;
76417;SDS011;65250;47.602;19.002;2023-02-18T01:30:47;1.03;;;0.70;;
76417;SDS011;65250;47.602;19.002;2023-02-18T01:33:17;1.67;;;0.75;;
76417;SDS011;65250;47.602;19.002;2023-02-18T01:35:45;1.00;;;0.60;;
76417;SDS011;65250;47.602;19.002;2023-02-18T01:38:13;0.95;;;0.40;;
76417;SDS011;65250;47.602;19.002;2023-02-18T01:40:49;1.15;;;0.40;;
76417;SDS011;65250;47.602;19.002;2023-02-18T01:43:18;1.83;;;0.60;;
76417;SDS011;65250;47.602;19.002;2023-02-18T01:48:37;0.57;;;0.40;;
76417;SDS011;65250;47.602;19.002;2023-02-18T01:53:38;4.63;;;0.82;;
76417;SDS011;65250;47.602;19.002;2023-02-18T01:56:33;1.87;;;0.53;;
76417;SDS011;65250;47.602;19.002;2023-02-18T01:59:05;1.27;;;0.80;;
76417;SDS011;65250;47.602;19.002;2023-02-18T02:01:35;2.85;;;0.50;;
76417;SDS011;65250;47.602;19.002;2023-02-18T02:04:03;1.80;;;0.50;;
76417;SDS011;65250;47.602;19.002;2023-02-18T02:06:31;1.50;;;0.40;;
76417;SDS011;65250;47.602;19.002;2023-02-18T02:09:00;0.90;;;0.60;;
76417;SDS011;65250;47.602;19.002;2023-02-18T02:17:02;1.00;;;0.52;;
76417;SDS011;65250;47.602;19.002;2023-02-18T02:32:44;0.70;;;0.50;;
76417;SDS011;65250;47.602;19.002;2023-02-18T02:38:41;2.17;;;0.63;;
76417;SDS011;65250;47.602;19.002;2023-02-18T02:43:57;1.27;;;0.45;;
76417;SDS011;65250;47.602;19.002;2023-02-18T02:46:40;1.27;;;0.60;;
76417;SDS011;65250;47.602;19.002;2023-02-18T02:49:17;2.60;;;0.80;;
76417;SDS011;65250;47.602;19.002;2023-02-18T02:52:06;0.90;;;0.60;;
76417;SDS011;65250;47.602;19.002;2023-02-18T02:54:38;1.35;;;0.45;;
76417;SDS011;65250;47.602;19.002;2023-02-18T02:59:35;1.55;;;0.50;;
76417;SDS011;65250;47.602;19.002;2023-02-18T03:10:46;1.52;;;0.50;;
76417;SDS011;65250;47.602;19.002;2023-02-18T03:14:01;0.77;;;0.60;;
76417;SDS011;65250;47.602;19.002;2023-02-18T03:24:19;0.60;;;0.30;;
76417;SDS011;65250;47.602;19.002;2023-02-18T03:26:51;1.17;;;0.50;;
76417;SDS011;65250;47.602;19.002;2023-02-18T03:29:22;3.37;;;0.73;;
76417;SDS011;65250;47.602;19.002;2023-02-18T03:31:52;0.98;;;0.73;;
76417;SDS011;65250;47.602;19.002;2023-02-18T03:34:24;1.48;;;0.55;;
76417;SDS011;65250;47.602;19.002;2023-02-18T03:36:54;1.00;;;0.50;;
76417;SDS011;65250;47.602;19.002;2023-02-18T03:39:25;0.90;;;0.50;;
76417;SDS011;65250;47.602;19.002;2023-02-18T03:41:54;1.23;;;0.60;;
76417;SDS011;65250;47.602;19.002;2023-02-18T03:44:23;1.75;;;0.57;;
76417;SDS011;65250;47.602;19.002;2023-02-18T03:46:51;0.90;;;0.40;;
76417;SDS011;65250;47.602;19.002;2023-02-18T03:49:19;0.93;;;0.50;;
76417;SDS011;65250;47.602;19.002;2023-02-18T03:51:47;0.85;;;0.47;;
76417;SDS011;65250;47.602;19.002;2023-02-18T03:54:15;0.70;;;0.40;;
76417;SDS011;65250;47.602;19.002;2023-02-18T03:56:43;1.17;;;0.40;;
76417;SDS011;65250;47.602;19.002;2023-02-18T03:59:11;2.83;;;0.55;;
76417;SDS011;65250;47.602;19.002;2023-02-18T04:01:39;1.02;;;0.70;;
76417;SDS011;65250;47.602;19.002;2023-02-18T04:04:07;0.43;;;0.32;;
76417;SDS011;65250;47.602;19.002;2023-02-18T04:06:34;1.33;;;0.40;;
76417;SDS011;65250;47.602;19.002;2023-02-18T04:09:02;1.38;;;0.80;;
76417;SDS011;65250;47.602;19.002;2023-02-18T04:11:36;1.52;;;0.63;;
76417;SDS011;65250;47.602;19.002;2023-02-18T04:14:05;0.82;;;0.50;;
76417;SDS011;65250;47.602;19.002;2023-02-18T04:16:34;1.27;;;0.60;;
76417;SDS011;65250;47.602;19.002;2023-02-18T04:19:02;1.33;;;0.37;;
76417;SDS011;65250;47.602;19.002;2023-02-18T04:21:31;1.20;;;0.45;;
76417;SDS011;65250;47.602;19.002;2023-02-18T04:23:59;0.82;;;0.35;;
76417;SDS011;65250;47.602;19.002;2023-02-18T04:26:27;0.90;;;0.50;;
76417;SDS011;65250;47.602;19.002;2023-02-18T04:28:55;0.70;;;0.40;;
76417;SDS011;65250;47.602;19.002;2023-02-18T04:31:24;1.37;;;0.50;;
76417;SDS011;65250;47.602;19.002;2023-02-18T04:33:51;1.10;;;0.35;;
76417;SDS011;65250;47.602;19.002;2023-02-18T04:36:19;1.35;;;0.50;;
76417;SDS011;65250;47.602;19.002;2023-02-18T04:38:47;2.72;;;1.05;;
76417;SDS011;65250;47.602;19.002;2023-02-18T04:41:15;1.50;;;1.00;;
76417;SDS011;65250;47.602;19.002;2023-02-18T04:43:43;1.43;;;0.50;;
76417;SDS011;65250;47.602;19.002;2023-02-18T04:46:11;0.70;;;0.50;;
76417;SDS011;65250;47.602;19.002;2023-02-18T04:48:39;0.90;;;0.60;;
76417;SDS011;65250;47.602;19.002;2023-02-18T04:51:07;0.80;;;0.52;;
76417;SDS011;65250;47.602;19.002;2023-02-18T04:53:35;2.53;;;0.60;;
76417;SDS011;65250;47.602;19.002;2023-02-18T04:56:03;6.37;;;0.87;;
76417;SDS011;65250;47.602;19.002;2023-02-18T04:58:31;0.70;;;0.43;;
76417;SDS011;65250;47.602;19.002;2023-02-18T05:01:00;0.40;;;0.22;;
76417;SDS011;65250;47.602;19.002;2023-02-18T05:03:28;0.55;;;0.35;;
76417;SDS011;65250;47.602;19.002;2023-02-18T05:05:56;1.42;;;0.50;;
76417;SDS011;65250;47.602;19.002;2023-02-18T05:08:24;0.60;;;0.33;;
76417;SDS011;65250;47.602;19.002;2023-02-18T05:10:51;1.42;;;0.47;;
76417;SDS011;65250;47.602;19.002;2023-02-18T05:13:19;1.95;;;0.30;;
76417;SDS011;65250;47.602;19.002;2023-02-18T05:15:49;0.88;;;0.40;;
76417;SDS011;65250;47.602;19.002;2023-02-18T05:18:16;1.30;;;0.50;;
76417;SDS011;65250;47.602;19.002;2023-02-18T05:20:44;0.60;;;0.50;;
76417;SDS011;65250;47.602;19.002;2023-02-18T05:23:12;0.95;;;0.40;;
76417;SDS011;65250;47.602;19.002;2023-02-18T05:25:41;0.60;;;0.30;;
76417;SDS011;65250;47.602;19.002;2023-02-18T05:28:08;1.05;;;0.68;;
76417;SDS011;65250;47.602;19.002;2023-02-18T05:30:36;0.50;;;0.50;;
76417;SDS011;65250;47.602;19.002;2023-02-18T05:33:03;0.77;;;0.40;;
76417;SDS011;65250;47.602;19.002;2023-02-18T05:35:31;0.95;;;0.40;;
76417;SDS011;65250;47.602;19.002;2023-02-18T05:37:58;1.30;;;0.82;;
76417;SDS011;65250;47.602;19.002;2023-02-18T05:40:26;1.67;;;0.93;;
76417;SDS011;65250;47.602;19.002;2023-02-18T05:42:54;1.38;;;0.63;;
76417;SDS011;65250;47.602;19.002;2023-02-18T05:45:22;1.00;;;0.70;;
76417;SDS011;65250;47.602;19.002;2023-02-18T05:47:50;1.00;;;0.43;;
76417;SDS011;65250;47.602;19.002;2023-02-18T05:50:17;1.25;;;0.70;;
76417;SDS011;65250;47.602;19.002;2023-02-18T05:52:45;1.88;;;0.70;;
76417;SDS011;65250;47.602;19.002;2023-02-18T05:55:13;2.15;;;0.70;;
76417;SDS011;65250;47.602;19.002;2023-02-18T05:57:41;0.77;;;0.57;;
76417;SDS011;65250;47.602;19.002;2023-02-18T06:00:09;1.42;;;0.70;;
76417;SDS011;65250;47.602;19.002;2023-02-18T06:02:38;1.70;;;0.80;;
76417;SDS011;65250;47.602;19.002;2023-02-18T06:05:05;1.58;;;0.68;;
76417;SDS011;65250;47.602;19.002;2023-02-18T06:07:34;2.40;;;0.80;;
76417;SDS011;65250;47.602;19.002;2023-02-18T06:10:02;1.20;;;0.80;;
76417;SDS011;65250;47.602;19.002;2023-02-18T06:12:29;1.83;;;1.10;;
76417;SDS011;65250;47.602;19.002;2023-02-18T06:14:57;1.35;;;0.93;;
76417;SDS011;65250;47.602;19.002;2023-02-18T06:17:25;2.35;;;1.15;;
76417;SDS011;65250;47.602;19.002;2023-02-18T06:19:52;4.15;;;1.70;;
76417;SDS011;65250;47.602;19.002;2023-02-18T06:22:20;2.10;;;1.00;;
76417;SDS011;65250;47.602;19.002;2023-02-18T06:24:48;2.35;;;1.00;;
76417;SDS011;65250;47.602;19.002;2023-02-18T06:27:16;1.92;;;0.80;;
76417;SDS011;65250;47.602;19.002;2023-02-18T06:29:44;1.92;;;0.80;;
76417;SDS011;65250;47.602;19.002;2023-02-18T06:32:12;1.35;;;0.90;;
76417;SDS011;65250;47.602;19.002;2023-02-18T06:34:40;1.20;;;0.77;;
76417;SDS011;65250;47.602;19.002;2023-02-18T06:37:07;0.90;;;0.60;;
76417;SDS011;65250;47.602;19.002;2023-02-18T06:39:35;1.60;;;0.73;;
76417;SDS011;65250;47.602;19.002;2023-02-18T06:42:04;1.73;;;0.80;;
76417;SDS011;65250;47.602;19.002;2023-02-18T06:44:32;2.38;;;0.60;;
76417;SDS011;65250;47.602;19.002;2023-02-18T06:46:59;1.33;;;0.87;;
76417;SDS011;65250;47.602;19.002;2023-02-18T06:49:27;0.80;;;0.50;;
76417;SDS011;65250;47.602;19.002;2023-02-18T06:51:54;2.53;;;0.70;;
76417;SDS011;65250;47.602;19.002;2023-02-18T06:54:21;1.23;;;0.47;;
76417;SDS011;65250;47.602;19.002;2023-02-18T06:56:49;1.80;;;0.68;;
76417;SDS011;65250;47.602;19.002;2023-02-18T06:59:17;1.17;;;0.77;;
76417;SDS011;65250;47.602;19.002;2023-02-18T07:01:45;3.35;;;1.00;;
76417;SDS011;65250;47.602;19.002;2023-02-18T07:04:13;2.47;;;0.90;;
76417;SDS011;65250;47.602;19.002;2023-02-18T07:06:41;2.25;;;0.70;;
76417;SDS011;65250;47.602;19.002;2023-02-18T07:09:08;1.70;;;0.95;;
76417;SDS011;65250;47.602;19.002;2023-02-18T07:11:36;1.03;;;0.60;;
76417;SDS011;65250;47.602;19.002;2023-02-18T07:14:04;0.60;;;0.60;;
76417;SDS011;65250;47.602;19.002;2023-02-18T07:16:34;1.08;;;0.60;;
76417;SDS011;65250;47.602;19.002;2023-02-18T07:19:02;1.45;;;0.63;;
76417;SDS011;65250;47.602;19.002;2023-02-18T07:21:30;1.77;;;0.90;;
76417;SDS011;65250;47.602;19.002;2023-02-18T07:23:58;1.07;;;0.60;;
76417;SDS011;65250;47.602;19.002;2023-02-18T07:26:26;1.60;;;1.08;;
76417;SDS011;65250;47.602;19.002;2023-02-18T07:28:53;1.52;;;0.93;;
76417;SDS011;65250;47.602;19.002;2023-02-18T07:31:21;2.85;;;1.05;;
76417;SDS011;65250;47.602;19.002;2023-02-18T07:33:49;1.95;;;0.90;;
76417;SDS011;65250;47.602;19.002;2023-02-18T07:36:17;4.17;;;1.40;;
76417;SDS011;65250;47.602;19.002;2023-02-18T07:38:44;5.60;;;1.90;;
76417;SDS011;65250;47.602;19.002;2023-02-18T07:41:18;3.60;;;1.30;;
76417;SDS011;65250;47.602;19.002;2023-02-18T07:43:47;3.47;;;1.45;;
76417;SDS011;65250;47.602;19.002;2023-02-18T07:46:14;1.40;;;0.90;;
76417;SDS011;65250;47.602;19.002;2023-02-18T07:48:43;1.27;;;0.80;;
76417;SDS011;65250;47.602;19.002;2023-02-18T07:51:11;1.60;;;0.75;;
76417;SDS011;65250;47.602;19.002;2023-02-18T07:53:39;1.10;;;0.80;;
76417;SDS011;65250;47.602;19.002;2023-02-18T07:56:07;0.80;;;0.60;;
76417;SDS011;65250;47.602;19.002;2023-02-18T07:58:36;1.20;;;0.57;;
76417;SDS011;65250;47.602;19.002;2023-02-18T08:01:05;1.53;;;0.77;;
76417;SDS011;65250;47.602;19.002;2023-02-18T08:03:33;1.17;;;0.60;;
76417;SDS011;65250;47.602;19.002;2023-02-18T08:06:02;0.77;;;0.70;;
76417;SDS011;65250;47.602;19.002;2023-02-18T08:08:31;1.13;;;0.70;;
76417;SDS011;65250;47.602;19.002;2023-02-18T08:11:02;1.35;;;0.70;;
76417;SDS011;65250;47.602;19.002;2023-02-18T08:13:42;0.73;;;0.70;;
76417;SDS011;65250;47.602;19.002;2023-02-18T08:16:13;1.38;;;0.88;;
76417;SDS011;65250;47.602;19.002;2023-02-18T08:18:41;2.22;;;0.60;;
76417;SDS011;65250;47.602;19.002;2023-02-18T08:21:10;1.83;;;0.43;;
76417;SDS011;65250;47.602;19.002;2023-02-18T08:23:38;2.05;;;0.38;;
76417;SDS011;65250;47.602;19.002;2023-02-18T08:26:06;0.77;;;0.43;;
76417;SDS011;65250;47.602;19.002;2023-02-18T08:28:35;1.40;;;0.60;;
76417;SDS011;65250;47.602;19.002;2023-02-18T08:31:03;1.02;;;0.45;;
76417;SDS011;65250;47.602;19.002;2023-02-18T08:33:31;2.42;;;0.93;;
76417;SDS011;65250;47.602;19.002;2023-02-18T08:35:59;1.65;;;0.75;;
76417;SDS011;65250;47.602;19.002;2023-02-18T08:38:27;1.20;;;0.53;;
76417;SDS011;65250;47.602;19.002;2023-02-18T08:41:02;0.80;;;0.52;;
76417;SDS011;65250;47.602;19.002;2023-02-18T08:43:32;2.15;;;0.60;;
76417;SDS011;65250;47.602;19.002;2023-02-18T08:46:01;1.27;;;0.65;;
76417;SDS011;65250;47.602;19.002;2023-02-18T08:48:28;0.82;;;0.70;;
76417;SDS011;65250;47.602;19.002;2023-02-18T08:50:56;1.40;;;0.57;;
76417;SDS011;65250;47.602;19.002;2023-02-18T08:53:24;2.08;;;0.63;;
76417;SDS011;65250;47.602;19.002;2023-02-18T08:55:52;0.93;;;0.52;;
76417;SDS011;65250;47.602;19.002;2023-02-18T08:58:20;1.10;;;0.70;;
76417;SDS011;65250;47.602;19.002;2023-02-18T09:00:48;0.98;;;0.50;;
76417;SDS011;65250;47.602;19.002;2023-02-18T09:03:16;1.20;;;0.70;;
76417;SDS011;65250;47.602;19.002;2023-02-18T09:05:44;3.65;;;0.80;;
76417;SDS011;65250;47.602;19.002;2023-02-18T09:08:12;0.95;;;0.70;;
76417;SDS011;65250;47.602;19.002;2023-02-18T09:10:40;1.55;;;0.70;;
76417;SDS011;65250;47.602;19.002;2023-02-18T09:13:10;1.40;;;0.80;;
76417;SDS011;65250;47.602;19.002;2023-02-18T09:15:37;2.73;;;1.03;;
76417;SDS011;65250;47.602;19.002;2023-02-18T09:18:05;2.42;;;0.80;;
76417;SDS011;65250;47.602;19.002;2023-02-18T09:20:33;1.80;;;0.80;;
76417;SDS011;65250;47.602;19.002;2023-02-18T09:23:01;1.42;;;0.85;;
76417;SDS011;65250;47.602;19.002;2023-02-18T09:25:29;1.38;;;0.60;;
76417;SDS011;65250;47.602;19.002;2023-02-18T09:27:57;0.60;;;0.40;;
76417;SDS011;65250;47.602;19.002;2023-02-18T09:30:25;0.80;;;0.50;;
76417;SDS011;65250;47.602;19.002;2023-02-18T09:32:52;0.50;;;0.50;;
76417;SDS011;65250;47.602;19.002;2023-02-18T09:35:20;0.65;;;0.40;;
76417;SDS011;65250;47.602;19.002;2023-02-18T09:37:48;1.30;;;0.50;;
76417;SDS011;65250;47.602;19.002;2023-02-18T09:40:26;4.50;;;0.70;;
76417;SDS011;65250;47.602;19.002;2023-02-18T09:42:56;1.50;;;0.68;;
76417;SDS011;65250;47.602;19.002;2023-02-18T09:45:26;2.15;;;0.60;;
76417;SDS011;65250;47.602;19.002;2023-02-18T09:47:54;2.10;;;0.90;;
76417;SDS011;65250;47.602;19.002;2023-02-18T09:50:23;0.85;;;0.60;;
76417;SDS011;65250;47.602;19.002;2023-02-18T09:52:54;0.70;;;0.60;;
76417;SDS011;65250;47.602;19.002;2023-02-18T09:55:30;1.20;;;0.73;;
76417;SDS011;65250;47.602;19.002;2023-02-18T09:58:00;1.25;;;0.85;;
76417;SDS011;65250;47.602;19.002;2023-02-18T10:00:37;0.73;;;0.60;;
76417;SDS011;65250;47.602;19.002;2023-02-18T10:03:12;1.23;;;0.70;;
76417;SDS011;65250;47.602;19.002;2023-02-18T10:05:57;0.57;;;0.40;;
76417;SDS011;65250;47.602;19.002;2023-02-18T10:08:34;0.75;;;0.50;;
76417;SDS011;65250;47.602;19.002;2023-02-18T10:11:09;1.23;;;0.52;;
76417;SDS011;65250;47.602;19.002;2023-02-18T10:13:40;0.70;;;0.40;;
76417;SDS011;65250;47.602;19.002;2023-02-18T10:16:08;0.80;;;0.60;;
76417;SDS011;65250;47.602;19.002;2023-02-18T10:18:39;2.57;;;0.73;;
76417;SDS011;65250;47.602;19.002;2023-02-18T10:21:09;1.27;;;0.50;;
76417;SDS011;65250;47.602;19.002;2023-02-18T10:23:39;1.30;;;0.60;;
76417;SDS011;65250;47.602;19.002;2023-02-18T10:26:10;1.00;;;0.50;;
76417;SDS011;65250;47.602;19.002;2023-02-18T10:28:41;1.08;;;0.60;;
76417;SDS011;65250;47.602;19.002;2023-02-18T10:31:09;1.07;;;0.73;;
76417;SDS011;65250;47.602;19.002;2023-02-18T10:33:46;1.15;;;0.77;;
76417;SDS011;65250;47.602;19.002;2023-02-18T10:41:41;1.08;;;0.60;;
76417;SDS011;65250;47.602;19.002;2023-02-18T10:44:22;1.17;;;0.70;;
76417;SDS011;65250;47.602;19.002;2023-02-18T10:52:28;3.38;;;0.60;;
76417;SDS011;65250;47.602;19.002;2023-02-18T10:55:03;0.70;;;0.40;;
76417;SDS011;65250;47.602;19.002;2023-02-18T10:57:44;1.30;;;0.43;;
76417;SDS011;65250;47.602;19.002;2023-02-18T11:02:43;0.55;;;0.40;;
76417;SDS011;65250;47.602;19.002;2023-02-18T11:05:19;0.52;;;0.32;;
76417;SDS011;65250;47.602;19.002;2023-02-18T11:07:50;1.60;;;0.50;;
76417;SDS011;65250;47.602;19.002;2023-02-18T11:10:24;1.20;;;0.60;;
76417;SDS011;65250;47.602;19.002;2023-02-18T11:13:00;0.90;;;0.50;;
76417;SDS011;65250;47.602;19.002;2023-02-18T11:15:29;1.65;;;0.70;;
76417;SDS011;65250;47.602;19.002;2023-02-18T11:18:12;1.42;;;0.70;;
76417;SDS011;65250;47.602;19.002;2023-02-18T11:20:41;0.88;;;0.60;;
76417;SDS011;65250;47.602;19.002;2023-02-18T11:23:23;0.70;;;0.60;;
76417;SDS011;65250;47.602;19.002;2023-02-18T11:25:52;1.83;;;0.70;;
76417;SDS011;65250;47.602;19.002;2023-02-18T11:28:26;1.15;;;1.02;;
76417;SDS011;65250;47.602;19.002;2023-02-18T11:30:58;1.73;;;1.25;;
76417;SDS011;65250;47.602;19.002;2023-02-18T11:33:34;2.10;;;1.20;;
76417;SDS011;65250;47.602;19.002;2023-02-18T11:36:22;2.87;;;1.10;;
76417;SDS011;65250;47.602;19.002;2023-02-18T11:38:52;1.60;;;1.10;;
76417;SDS011;65250;47.602;19.002;2023-02-18T11:41:28;1.17;;;1.00;;
76417;SDS011;65250;47.602;19.002;2023-02-18T11:43:58;3.13;;;1.10;;
76417;SDS011;65250;47.602;19.002;2023-02-18T11:46:26;2.22;;;1.00;;
76417;SDS011;65250;47.602;19.002;2023-02-18T11:48:55;1.20;;;0.93;;
76417;SDS011;65250;47.602;19.002;2023-02-18T11:51:38;1.35;;;1.05;;
76417;SDS011;65250;47.602;19.002;2023-02-18T11:54:25;1.58;;;1.30;;
76417;SDS011;65250;47.602;19.002;2023-02-18T11:57:00;1.77;;;1.25;;
76417;SDS011;65250;47.602;19.002;2023-02-18T11:59:34;1.58;;;1.48;;
76417;SDS011;65250;47.602;19.002;2023-02-18T12:07:23;1.88;;;1.10;;
76417;SDS011;65250;47.602;19.002;2023-02-18T12:09:57;1.95;;;1.63;;
76417;SDS011;65250;47.602;19.002;2023-02-18T12:12:28;1.40;;;1.30;;
76417;SDS011;65250;47.602;19.002;2023-02-18T12:14:58;1.97;;;1.23;;
76417;SDS011;65250;47.602;19.002;2023-02-18T12:17:41;1.40;;;1.23;;
76417;SDS011;65250;47.602;19.002;2023-02-18T12:22:50;2.00;;;1.50;;
76417;SDS011;65250;47.602;19.002;2023-02-18T12:25:34;1.50;;;1.40;;
76417;SDS011;65250;47.602;19.002;2023-02-18T12:34:07;2.10;;;1.85;;
76417;SDS011;65250;47.602;19.002;2023-02-18T12:37:04;1.88;;;1.23;;
76417;SDS011;65250;47.602;19.002;2023-02-18T12:53:30;1.77;;;1.20;;
76417;SDS011;65250;47.602;19.002;2023-02-18T13:01:43;1.50;;;1.40;;
76417;SDS011;65250;47.602;19.002;2023-02-18T13:12:47;1.70;;;1.60;;
76417;SDS011;65250;47.602;19.002;2023-02-18T13:15:35;1.92;;;1.80;;
76417;SDS011;65250;47.602;19.002;2023-02-18T13:18:10;2.25;;;2.15;;
76417;SDS011;65250;47.602;19.002;2023-02-18T13:20:56;2.63;;;2.47;;
76417;SDS011;65250;47.602;19.002;2023-02-18T13:23:31;3.03;;;2.70;;
76417;SDS011;65250;47.602;19.002;2023-02-18T13:26:02;2.53;;;2.40;;
76417;SDS011;65250;47.602;19.002;2023-02-18T13:34:00;2.95;;;2.70;;
76417;SDS011;65250;47.602;19.002;2023-02-18T13:41:33;3.35;;;2.50;;
76417;SDS011;65250;47.602;19.002;2023-02-18T13:44:06;2.65;;;2.17;;
76417;SDS011;65250;47.602;19.002;2023-02-18T13:46:48;1.90;;;1.80;;
76417;SDS011;65250;47.602;19.002;2023-02-18T13:49:22;1.60;;;1.50;;
76417;SDS011;65250;47.602;19.002;2023-02-18T13:51:52;1.55;;;1.50;;
76417;SDS011;65250;47.602;19.002;2023-02-18T13:57:00;1.13;;;1.10;;
76417;SDS011;65250;47.602;19.002;2023-02-18T13:59:34;0.80;;;0.80;;
76417;SDS011;65250;47.602;19.002;2023-02-18T14:04:50;0.77;;;0.77;;
76417;SDS011;65250;47.602;19.002;2023-02-18T14:07:24;1.20;;;1.10;;
76417;SDS011;65250;47.602;19.002;2023-02-18T14:20:46;1.50;;;1.40;;
76417;SDS011;65250;47.602;19.002;2023-02-18T14:25:54;1.73;;;1.63;;
76417;SDS011;65250;47.602;19.002;2023-02-18T14:31:04;2.20;;;2.10;;
76417;SDS011;65250;47.602;19.002;2023-02-18T14:33:40;1.90;;;1.80;;
76417;SDS011;65250;47.602;19.002;2023-02-18T14:50:15;1.60;;;1.50;;
76417;SDS011;65250;47.602;19.002;2023-02-18T14:55:29;1.67;;;1.13;;
76417;SDS011;65250;47.602;19.002;2023-02-18T15:00:34;1.20;;;1.10;;
76417;SDS011;65250;47.602;19.002;2023-02-18T15:03:12;1.35;;;1.25;;
76417;SDS011;65250;47.602;19.002;2023-02-18T15:05:44;2.10;;;1.30;;
76417;SDS011;65250;47.602;19.002;2023-02-18T15:16:01;1.20;;;1.10;;
76417;SDS011;65250;47.602;19.002;2023-02-18T15:18:43;2.65;;;1.30;;
76417;SDS011;65250;47.602;19.002;2023-02-18T15:21:23;1.53;;;1.10;;
76417;SDS011;65250;47.602;19.002;2023-02-18T15:23:52;2.08;;;1.33;;
76417;SDS011;65250;47.602;19.002;2023-02-18T15:26:20;1.92;;;1.38;;
76417;SDS011;65250;47.602;19.002;2023-02-18T15:28:59;1.70;;;1.10;;
76417;SDS011;65250;47.602;19.002;2023-02-18T15:31:29;1.20;;;1.05;;
76417;SDS011;65250;47.602;19.002;2023-02-18T15:33:58;2.77;;;1.10;;
76417;SDS011;65250;47.602;19.002;2023-02-18T15:36:26;2.30;;;1.30;;
76417;SDS011;65250;47.602;19.002;2023-02-18T15:38:55;2.10;;;1.10;;
76417;SDS011;65250;47.602;19.002;2023-02-18T15:41:23;1.20;;;0.90;;
76417;SDS011;65250;47.602;19.002;2023-02-18T15:43:54;1.23;;;0.88;;
76417;SDS011;65250;47.602;19.002;2023-02-18T15:46:29;2.87;;;1.20;;
76417;SDS011;65250;47.602;19.002;2023-02-18T15:48:59;2.10;;;1.52;;
76417;SDS011;65250;47.602;19.002;2023-02-18T15:51:28;2.00;;;1.10;;
76417;SDS011;65250;47.602;19.002;2023-02-18T15:53:57;4.07;;;1.42;;
76417;SDS011;65250;47.602;19.002;2023-02-18T16:01:55;4.10;;;2.15;;
76417;SDS011;65250;47.602;19.002;2023-02-18T16:04:31;2.85;;;1.67;;
76417;SDS011;65250;47.602;19.002;2023-02-18T16:07:14;3.47;;;1.75;;
76417;SDS011;65250;47.602;19.002;2023-02-18T16:09:50;2.45;;;1.42;;
76417;SDS011;65250;47.602;19.002;2023-02-18T16:12:28;3.37;;;1.40;;
76417;SDS011;65250;47.602;19.002;2023-02-18T16:14:57;4.82;;;1.58;;
76417;SDS011;65250;47.602;19.002;2023-02-18T16:17:26;16.35;;;9.85;;
76417;SDS011;65250;47.602;19.002;2023-02-18T16:19:56;21.13;;;10.73;;
76417;SDS011;65250;47.602;19.002;2023-02-18T16:28:03;28.35;;;13.70;;
76417;SDS011;65250;47.602;19.002;2023-02-18T16:30:33;25.23;;;13.30;;
76417;SDS011;65250;47.602;19.002;2023-02-18T16:33:01;31.75;;;15.18;;
76417;SDS011;65250;47.602;19.002;2023-02-18T16:35:29;25.98;;;14.20;;
76417;SDS011;65250;47.602;19.002;2023-02-18T16:38:15;29.27;;;15.30;;
76417;SDS011;65250;47.602;19.002;2023-02-18T16:40:44;29.27;;;16.13;;
76417;SDS011;65250;47.602;19.002;2023-02-18T16:45:45;30.00;;;15.65;;
76417;SDS011;65250;47.602;19.002;2023-02-18T16:48:18;31.00;;;16.05;;
76417;SDS011;65250;47.602;19.002;2023-02-18T16:50:47;30.97;;;16.50;;
76417;SDS011;65250;47.602;19.002;2023-02-18T16:53:16;33.72;;;17.23;;
76417;SDS011;65250;47.602;19.002;2023-02-18T16:55:44;34.90;;;17.35;;
76417;SDS011;65250;47.602;19.002;2023-02-18T16:58:12;33.92;;;16.60;;
76417;SDS011;65250;47.602;19.002;2023-02-18T17:00:40;32.85;;;17.85;;
76417;SDS011;65250;47.602;19.002;2023-02-18T17:03:08;31.97;;;16.87;;
76417;SDS011;65250;47.602;19.002;2023-02-18T17:05:37;35.80;;;17.90;;
76417;SDS011;65250;47.602;19.002;2023-02-18T17:10:51;35.95;;;18.67;;
76417;SDS011;65250;47.602;19.002;2023-02-18T17:13:22;34.70;;;16.55;;
76417;SDS011;65250;47.602;19.002;2023-02-18T17:15:54;38.77;;;17.67;;
76417;SDS011;65250;47.602;19.002;2023-02-18T17:18:22;32.75;;;17.27;;
76417;SDS011;65250;47.602;19.002;2023-02-18T17:20:51;38.33;;;18.65;;
76417;SDS011;65250;47.602;19.002;2023-02-18T17:23:21;37.60;;;17.90;;
76417;SDS011;65250;47.602;19.002;2023-02-18T17:25:50;37.67;;;18.25;;
76417;SDS011;65250;47.602;19.002;2023-02-18T17:28:19;40.10;;;19.57;;
76417;SDS011;65250;47.602;19.002;2023-02-18T17:30:48;38.05;;;19.65;;
76417;SDS011;65250;47.602;19.002;2023-02-18T17:33:20;36.83;;;18.10;;
76417;SDS011;65250;47.602;19.002;2023-02-18T17:35:48;40.72;;;19.60;;
76417;SDS011;65250;47.602;19.002;2023-02-18T17:38:17;41.17;;;19.40;;
76417;SDS011;65250;47.602;19.002;2023-02-18T17:40:46;40.23;;;19.57;;
76417;SDS011;65250;47.602;19.002;2023-02-18T17:43:17;35.55;;;18.75;;
76417;SDS011;65250;47.602;19.002;2023-02-18T17:45:48;41.05;;;19.38;;
76417;SDS011;65250;47.602;19.002;2023-02-18T17:48:21;40.20;;;20.23;;
76417;SDS011;65250;47.602;19.002;2023-02-18T17:50:50;39.90;;;18.98;;